createdAt,value
2022-11-04T00:04:56.434Z,95867.00
2022-11-04T00:10:17.074Z,95866.16
2022-11-04T00:15:56.369Z,95868.09
2022-11-04T00:21:35.623Z,95858.78
2022-11-04T00:27:15.756Z,95846.09
2022-11-04T00:32:55.437Z,95849.03
2022-11-04T00:38:17.203Z,95841.69
2022-11-04T00:43:37.811Z,95836.63
2022-11-04T00:48:59.112Z,95838.75
2022-11-04T00:54:19.931Z,95816.44
2022-11-04T00:59:40.915Z,95814.81
2022-11-04T01:05:02.003Z,95812.53
2022-11-04T01:10:22.977Z,95808.59
2022-11-04T01:15:43.574Z,95807.63
2022-11-04T01:21:06.543Z,95812.03
2022-11-04T01:26:28.917Z,95814.63
2022-11-04T01:31:49.532Z,95812.66
2022-11-04T01:37:10.401Z,95805.16
2022-11-04T01:42:31.049Z,95802.84
2022-11-04T01:48:00.688Z,95804.47
2022-11-04T01:53:27.740Z,95809.03
2022-11-04T01:58:52.729Z,95804.66
2022-11-04T02:04:26.059Z,95799.44
2022-11-04T02:09:47.189Z,95784.63
2022-11-04T02:15:08.185Z,95768.06
2022-11-04T02:20:33.942Z,95771.31
2022-11-04T02:26:20.891Z,95750.00
2022-11-04T02:31:54.034Z,95738.63
2022-11-04T02:37:18.520Z,95721.06
2022-11-04T02:43:02.511Z,95728.25
2022-11-04T02:48:37.901Z,95732.66
2022-11-04T02:54:03.470Z,95761.28
2022-11-04T02:59:55.299Z,95758.72
2022-11-04T03:05:20.390Z,95776.16
2022-11-04T03:10:45.037Z,95779.25
2022-11-04T03:16:11.615Z,95772.25
2022-11-04T03:21:37.059Z,95767.69
2022-11-04T03:27:12.626Z,95773.41
2022-11-04T03:32:44.619Z,95776.66
2022-11-04T03:38:05.753Z,95849.59
2022-11-04T03:43:29.027Z,95853.50
2022-11-04T03:48:53.127Z,95848.47
2022-11-04T03:54:15.856Z,95846.00
2022-11-04T04:00:07.151Z,95845.84
2022-11-04T04:05:46.458Z,95849.94
2022-11-04T04:11:23.656Z,95852.38
2022-11-04T04:16:47.622Z,95846.56
2022-11-04T04:22:14.578Z,95850.47
2022-11-04T04:27:36.348Z,95855.88
2022-11-04T04:33:03.387Z,95853.25
2022-11-04T04:38:45.688Z,95845.09
2022-11-04T04:44:34.353Z,95834.50
2022-11-04T04:49:57.933Z,95837.94
2022-11-04T04:55:19.528Z,95840.88
2022-11-04T05:00:40.322Z,95830.25
2022-11-04T05:06:01.069Z,95841.00
2022-11-04T05:11:26.205Z,95842.31
2022-11-04T05:16:48.150Z,95842.13
2022-11-04T05:22:08.956Z,95834.13
2022-11-04T05:27:29.631Z,95831.50
2022-11-04T05:32:50.474Z,95827.81
2022-11-04T05:38:11.210Z,95834.81
2022-11-04T05:43:32.695Z,95838.22
2022-11-04T05:48:54.096Z,95831.84
2022-11-04T05:54:14.777Z,95839.69
2022-11-04T05:59:35.401Z,95842.97
2022-11-04T06:04:56.210Z,95835.13
2022-11-04T06:10:16.983Z,95836.59
2022-11-04T06:15:38.040Z,95841.34
2022-11-04T06:21:09.533Z,95837.09
2022-11-04T06:26:31.409Z,95838.06
2022-11-04T06:31:51.998Z,95831.53
2022-11-04T06:37:12.797Z,95823.38
2022-11-04T06:42:33.370Z,95830.72
2022-11-04T06:47:54.186Z,95831.22
2022-11-04T06:53:14.912Z,95826.31
2022-11-04T06:58:35.775Z,95830.41
2022-11-04T07:03:58.687Z,95836.59
2022-11-04T07:09:19.611Z,95858.63
2022-11-04T07:14:40.836Z,95850.13
2022-11-04T07:20:01.798Z,95851.59
2022-11-04T07:25:23.394Z,95855.06
2022-11-04T07:30:44.008Z,95840.53
2022-11-04T07:36:06.436Z,95843.13
2022-11-04T07:41:27.296Z,95855.19
2022-11-04T07:46:48.005Z,95852.13
2022-11-04T07:52:08.755Z,95845.09
2022-11-04T07:57:29.591Z,95856.81
2022-11-04T08:02:50.703Z,95851.13
2022-11-04T08:08:11.522Z,95853.38
2022-11-04T08:13:35.041Z,95854.09
2022-11-04T08:19:01.667Z,95852.59
2022-11-04T08:24:22.735Z,95840.78
2022-11-04T08:29:43.646Z,95848.41
2022-11-04T08:35:04.648Z,95854.13
2022-11-04T08:40:25.862Z,95847.50
2022-11-04T08:45:46.846Z,95859.88
2022-11-04T08:51:13.117Z,95850.94
2022-11-04T08:56:39.077Z,95852.38
2022-11-04T09:02:00.170Z,95841.31
2022-11-04T09:07:21.332Z,95838.38
2022-11-04T09:12:43.038Z,95838.09
2022-11-04T09:18:04.164Z,95838.75
2022-11-04T09:23:25.116Z,95838.41
2022-11-04T09:28:46.036Z,95836.81
2022-11-04T09:34:06.774Z,95836.31
2022-11-04T09:39:27.627Z,95833.03
2022-11-04T09:45:20.079Z,95841.28
2022-11-04T09:50:49.341Z,95848.13
2022-11-04T09:56:26.944Z,95842.06
2022-11-04T10:02:03.017Z,95840.75
2022-11-04T10:07:49.088Z,95837.16
2022-11-04T10:13:19.223Z,95827.91
2022-11-04T10:18:52.301Z,95836.19
2022-11-04T10:24:16.300Z,95811.59
2022-11-04T10:29:43.098Z,95825.41
2022-11-04T10:35:13.059Z,95820.03
2022-11-04T10:40:36.575Z,95817.06
2022-11-04T10:46:07.369Z,95794.78
2022-11-04T10:51:28.036Z,95791.16
2022-11-04T10:56:56.800Z,95793.94
2022-11-04T11:02:18.100Z,95788.75
2022-11-04T11:07:39.242Z,95783.16
2022-11-04T11:13:08.326Z,95770.78
2022-11-04T11:18:29.634Z,95765.56
2022-11-04T11:23:54.619Z,95765.72
2022-11-04T11:29:29.480Z,95762.28
2022-11-04T11:34:50.317Z,95765.34
2022-11-04T11:40:28.298Z,95773.00
2022-11-04T11:45:50.813Z,95770.06
2022-11-04T11:51:26.257Z,95771.38
2022-11-04T11:57:15.895Z,95762.53
2022-11-04T12:02:50.627Z,95761.38
2022-11-04T12:14:24.985Z,95709.72
2022-11-04T12:20:20.112Z,95700.44
2022-11-04T12:26:13.774Z,95694.41
2022-11-04T12:31:51.248Z,95705.31
2022-11-04T12:37:33.318Z,95713.78
2022-11-04T12:43:12.335Z,95700.63
2022-11-04T12:48:39.246Z,95708.72
2022-11-04T12:54:19.072Z,95704.03
2022-11-04T13:00:03.301Z,95702.72
2022-11-04T13:05:58.468Z,95711.50
2022-11-04T13:11:36.178Z,95726.50
2022-11-04T13:17:01.111Z,95726.66
2022-11-04T13:22:34.002Z,95726.31
2022-11-04T13:27:54.995Z,95725.19
2022-11-04T13:33:58.418Z,95712.16
2022-11-04T13:39:29.544Z,95711.03
2022-11-04T13:44:54.269Z,95711.00
2022-11-04T13:50:37.433Z,95722.22
2022-11-04T13:56:09.473Z,95725.31
2022-11-04T14:01:39.141Z,95737.69
2022-11-04T14:07:04.433Z,95733.78
2022-11-04T14:12:30.901Z,95749.03
2022-11-04T14:17:52.038Z,95754.38
2022-11-04T14:23:24.514Z,95764.75
2022-11-04T14:28:48.205Z,95763.75
2022-11-04T14:34:26.059Z,95762.00
2022-11-04T14:39:58.257Z,95771.25
2022-11-04T14:45:25.656Z,95793.47
2022-11-04T14:50:51.125Z,95798.13
2022-11-04T14:56:24.385Z,95812.69
2022-11-04T15:01:45.948Z,95807.09
2022-11-04T15:07:29.238Z,95810.06
2022-11-04T15:12:53.653Z,95819.94
2022-11-04T15:18:21.798Z,95818.19
2022-11-04T15:23:55.931Z,95821.06
2022-11-04T15:29:18.659Z,95815.47
2022-11-04T15:34:39.735Z,95821.44
2022-11-04T15:40:00.833Z,95818.66
2022-11-04T15:45:34.825Z,95832.22
2022-11-04T15:51:17.198Z,95828.25
2022-11-04T15:56:50.055Z,95827.03
2022-11-04T16:02:49.242Z,95831.59
2022-11-04T16:08:29.138Z,95852.78
2022-11-04T16:13:50.003Z,95851.31
2022-11-04T16:19:23.130Z,95860.72
2022-11-04T16:24:48.924Z,95862.94
2022-11-04T16:30:17.570Z,95860.28
2022-11-04T16:35:42.818Z,95869.28
2022-11-04T16:41:03.811Z,95879.72
2022-11-04T16:46:24.834Z,95876.06
2022-11-04T16:51:49.706Z,95881.03
2022-11-04T16:57:13.287Z,95884.66
2022-11-04T17:02:37.908Z,95885.94
2022-11-04T17:08:04.504Z,95884.00
2022-11-04T17:13:26.069Z,95894.94
2022-11-04T17:18:46.943Z,95889.13
2022-11-04T17:24:07.652Z,95897.63
2022-11-04T17:29:29.977Z,95909.16
2022-11-04T17:34:53.201Z,95907.88
2022-11-04T17:40:18.454Z,95912.81
2022-11-04T17:45:41.390Z,95921.72
2022-11-04T17:51:07.693Z,95929.97
2022-11-04T17:56:28.607Z,95932.56
2022-11-04T18:01:49.796Z,95942.53
2022-11-04T18:07:10.657Z,95949.66
2022-11-04T18:12:37.233Z,95957.63
2022-11-04T18:17:58.117Z,95960.75
2022-11-04T18:23:18.761Z,95964.66
2022-11-04T18:28:40.280Z,95974.56
2022-11-04T18:34:04.516Z,95973.72
2022-11-04T18:39:25.597Z,95973.28
2022-11-04T18:44:46.533Z,95984.59
2022-11-04T18:50:07.572Z,95989.84
2022-11-04T18:55:32.946Z,95994.06
2022-11-04T19:00:54.137Z,96003.19
2022-11-04T19:06:17.814Z,96007.72
2022-11-04T19:11:40.089Z,96024.00
2022-11-04T19:17:00.821Z,96037.41
2022-11-04T19:22:21.508Z,96056.94
2022-11-04T19:27:42.408Z,96067.47
2022-11-04T19:33:03.020Z,96070.88
2022-11-04T19:38:24.528Z,96067.59
2022-11-04T19:43:45.536Z,96074.41
2022-11-04T19:49:07.749Z,96079.50
2022-11-04T19:54:29.439Z,96088.78
2022-11-04T19:59:51.117Z,96109.38
2022-11-04T20:05:12.136Z,96117.72
2022-11-04T20:10:36.107Z,96135.34
2022-11-04T20:15:57.371Z,96144.09
2022-11-04T20:21:20.338Z,96151.47
2022-11-04T20:26:46.727Z,96159.53
2022-11-04T20:32:07.617Z,96161.28
2022-11-04T20:37:28.406Z,96173.47
2022-11-04T20:42:49.073Z,96186.44
2022-11-04T20:48:10.081Z,96193.66
2022-11-04T20:53:31.352Z,96206.09
2022-11-04T20:58:57.718Z,96206.22
2022-11-04T21:04:21.466Z,96213.22
2022-11-04T21:09:42.180Z,96222.38
2022-11-04T21:15:03.172Z,96226.72
2022-11-04T21:20:24.176Z,96235.06
2022-11-04T21:25:54.202Z,96235.75
2022-11-04T21:31:15.030Z,96245.31
2022-11-04T21:36:36.264Z,96250.38
2022-11-04T21:41:57.141Z,96257.88
2022-11-04T21:47:17.797Z,96259.78
2022-11-04T21:52:38.532Z,96258.44
2022-11-04T21:57:59.216Z,96247.34
2022-11-04T22:03:19.920Z,96250.50
2022-11-04T22:08:46.711Z,96257.75
2022-11-04T22:14:11.523Z,96251.19
2022-11-04T22:19:32.228Z,96253.53
2022-11-04T22:25:06.183Z,96248.06
2022-11-04T22:30:27.313Z,96247.78
2022-11-04T22:35:48.113Z,96254.47
2022-11-04T22:41:15.056Z,96248.06
2022-11-04T22:46:36.079Z,96261.19
2022-11-04T22:51:56.887Z,96263.63
2022-11-04T22:57:17.776Z,96268.53
2022-11-04T23:02:38.790Z,96261.72
2022-11-04T23:08:00.669Z,96278.66
2022-11-04T23:13:40.066Z,96278.38
2022-11-04T23:19:00.860Z,96276.19
2022-11-04T23:24:40.132Z,96281.53
2022-11-04T23:30:20.861Z,96274.97
2022-11-04T23:36:05.320Z,96264.56
2022-11-04T23:41:44.587Z,96275.50
2022-11-04T23:47:23.720Z,96284.13
2022-11-04T23:53:10.851Z,96295.75
2022-11-04T23:58:50.605Z,96283.88
